Latest Weather Observations for Murrurundi Gap

IDN60801

Issued at 5:34 pm EDT Sunday 21 December 2014 (issued every 30 minutes, with the page automatically refreshed every 10 minutes)

About weather observations | Map of weather stations | Latest weather observations for NSW | Other Formats
Station Details ID: 061392 Name: MURRURUNDI GAP AWS Lat: -31.74 Lon: 150.79 Height: 729.4 m
Data from the previous 72 hours. | See also: Recent months for locations in New South Wales
Date/Time
EDT
Temp
°C
App
Temp
°C
Dew
Point
Rel
Hum
%
Delta-T
°C
Wind Press
QNH
hPa
Press
MSL
hPa
Rain
since 9 am
mm
Dir
 
Spd
km/h
Gust
km/h
Spd
kts
Gust
kts
21/05:30pm 26.2 22.9 11.5 40 8.6 SE 20 26 11 14 1016.1 1012.6 0.0
21/05:00pm 27.8 26.3 11.8 37 9.5 E 11 20 6 11 1016.2 1012.7 0.0
21/04:30pm 27.3 25.1 12.1 39 9.1 ESE 15 20 8 11 1016.5 1013.0 0.0
21/04:00pm 28.8 27.4 12.2 35 10.0 SE 11 22 6 12 1016.6 1013.1 0.0
21/03:30pm 27.8 24.4 9.1 31 10.6 NW 17 24 9 13 1017.1 1013.7 0.0
21/03:00pm 27.0 23.2 9.8 34 9.9 NW 20 28 11 15 1017.4 1013.9 0.0
21/02:41pm 27.0 25.9 11.9 39 9.0 WSW 9 17 5 9 1017.7 1014.2 0.0
21/02:30pm 27.6 26.2 10.8 35 9.8 W 9 15 5 8 1017.8 1014.3 0.0
21/02:26pm 28.1 26.9 12.8 38 9.3 NW 11 20 6 11 1017.9 1014.4 0.0
21/02:00pm 26.9 25.0 11.8 39 8.9 NW 13 22 7 12 1018.2 1014.8 0.0
21/01:30pm 26.0 23.0 12.1 42 8.2 NW 19 26 10 14 1018.5 1015.1 0.0
21/01:00pm 26.2 23.6 13.7 46 7.6 W 20 28 11 15 1018.7 1015.2 0.0
21/12:30pm 25.4 22.9 12.3 44 7.8 NNW 17 28 9 15 1019.0 1015.5 0.0
21/12:00pm 24.6 21.8 13.2 49 6.8 NW 20 32 11 17 1019.1 1015.6 0.0
21/11:30am 24.2 20.7 13.4 51 6.5 NW 24 32 13 17 1019.4 1016.0 0.0
21/11:00am 23.0 20.0 13.8 56 5.5 NW 22 30 12 16 1019.5 1016.1 0.0
21/10:30am 22.9 20.4 14.2 58 5.3 NW 20 24 11 13 1019.6 1016.2 0.0
21/10:00am 21.5 21.4 13.4 60 4.8 E 6 11 3 6 1019.8 1016.4 0.0
21/09:30am 19.5 17.9 12.7 65 4.0 ESE 13 19 7 10 1019.9 1016.5 0.0
21/09:00am 19.0 17.7 13.6 71 3.2 ESE 13 19 7 10 1019.9 1016.5 0.0
21/08:30am 18.1 16.6 13.2 73 2.9 ESE 13 19 7 10 1019.7 1016.3 0.0
21/08:00am 17.0 15.1 12.9 77 2.4 ESE 15 17 8 9 1019.5 1016.1 0.0
21/07:30am 16.0 14.3 12.6 80 1.9 ESE 13 17 7 9 1019.3 1015.8 0.0
21/07:00am 15.2 13.3 12.9 86 1.3 SE 15 17 8 9 1019.1 1015.6 0.0
21/06:30am 14.3 11.9 12.5 89 1.0 SE 17 19 9 10 1018.5 1015.1 0.0
21/06:00am 13.8 11.4 12.5 92 0.7 SE 17 19 9 10 1018.1 1014.8 0.0
21/05:30am 13.7 10.8 12.4 92 0.7 SE 19 19 10 10 1017.7 1014.2 0.0
21/05:00am 13.7 11.2 12.3 91 0.8 SE 17 20 9 11 1017.5 1014.0 0.0
21/04:30am 14.2 11.8 12.6 90 0.9 ESE 17 19 9 10 1017.4 1013.9 0.0
21/04:00am 13.7 11.1 12.1 90 0.9 SE 17 20 9 11 1017.5 1014.0 0.0
21/03:30am 14.1 10.8 12.7 91 0.8 SE 22 26 12 14 1017.3 1013.8 0.0
21/03:00am 13.8 10.0 12.4 91 0.8 SE 24 30 13 16 1017.3 1013.8 0.0
21/02:30am 13.7 10.0 12.6 93 0.6 SE 24 30 13 16 1017.5 1014.0 0.0
21/02:00am 14.5 10.3 12.5 88 1.1 SE 26 33 14 18 1017.6 1014.1 0.0
21/01:30am 15.6 10.1 12.5 82 1.8 SSE 33 41 18 22 1017.8 1014.3 0.0
21/01:00am 15.8 9.2 12.7 82 1.8 SSE 39 43 21 23 1017.9 1014.4 0.0
21/12:30am 16.0 10.2 12.7 81 1.9 SSE 35 43 19 23 1018.1 1014.6 0.0
21/12:00am 16.5 10.0 13.0 80 2.0 SSE 39 46 21 25 1018.2 1014.8 0.0
 
Date/Time
EDT
Temp
°C
App
Temp
°C
Dew
Point
Rel
Hum
%
Delta-T
°C
Wind Press
QNH
hPa
Press
MSL
hPa
Rain
since 9 am
mm
Dir
 
Spd
km/h
Gust
km/h
Spd
kts
Gust
kts
20/11:30pm 16.7 10.6 13.0 79 2.1 SSE 37 44 20 24 1018.2 1014.8 0.0
20/11:00pm 17.2 11.9 13.1 77 2.4 SSE 33 41 18 22 1018.4 1015.0 0.0
20/10:30pm 17.9 11.6 13.4 75 2.6 SE 39 46 21 25 1018.3 1014.9 0.0
20/10:00pm 18.2 12.2 13.3 73 2.9 SE 37 44 20 24 1018.3 1014.9 0.0
20/09:30pm 18.6 13.3 13.2 71 3.2 SE 33 39 18 21 1018.0 1014.5 0.0
20/09:00pm 18.8 14.0 13.0 69 3.4 SE 30 37 16 20 1017.8 1014.3 0.0
20/08:30pm 19.1 14.2 12.6 66 3.8 SSE 30 33 16 18 1017.4 1013.9 0.0
20/08:00pm 19.8 15.3 12.6 63 4.2 SE 28 35 15 19 1017.0 1013.6 0.0
20/07:30pm 20.6 17.1 12.3 59 4.8 SSE 22 33 12 18 1016.6 1013.1 0.0
20/07:00pm 21.6 18.0 11.9 54 5.6 SSE 22 35 12 19 1016.2 1012.7 0.0
20/06:30pm 22.5 17.7 11.6 50 6.3 S 28 35 15 19 1015.6 1012.1 0.0
20/05:30pm 23.9 20.0 10.9 44 7.5 SSE 22 32 12 17 1015.2 1011.7 0.0
20/05:00pm 25.1 22.5 12.0 44 7.7 SE 17 26 9 14 1015.2 1011.7 0.0
20/04:30pm 25.1 22.0 11.6 42 7.9 SE 19 30 10 16 1015.3 1011.8 0.0
20/04:00pm 24.9 22.7 10.7 40 8.2 ESE 13 30 7 16 1015.5 1012.0 0.0
20/03:30pm 25.2 22.5 11.7 43 7.9 S 17 24 9 13 1015.9 1012.4 0.0
20/03:00pm 23.9 20.6 11.6 46 7.2 ESE 20 26 11 14 1016.2 1012.7 0.0
20/02:30pm 25.2 23.2 10.3 39 8.5 S 11 15 6 8 1016.5 1013.0 0.0
20/02:00pm 24.7 22.0 11.6 44 7.7 SSW 17 22 9 12 1016.7 1013.2 0.0
20/01:30pm 24.1 23.1 11.1 44 7.5 ESE 7 17 4 9 1017.1 1013.7 0.0
20/01:00pm 24.0 23.4 12.3 48 6.9 ENE 7 15 4 8 1017.6 1014.1 0.0
20/12:30pm 23.6 22.0 14.0 55 5.8 SE 15 22 8 12 1018.0 1014.5 0.0
20/12:00pm 21.5 18.9 12.1 55 5.5 ESE 17 22 9 12 1018.3 1014.9 0.0
20/11:30am 21.1 18.9 13.3 61 4.6 SE 17 26 9 14 1018.4 1015.0 0.0
20/11:00am 20.1 17.0 12.3 61 4.5 SE 20 28 11 15 1018.4 1015.0 0.0
20/10:30am 18.7 15.1 12.0 65 3.8 SE 22 32 12 17 1018.5 1015.1 0.0
20/10:00am 18.1 14.7 11.2 64 3.9 SE 20 32 11 17 1018.4 1015.0 0.0
20/09:30am 18.2 14.6 12.9 71 3.1 SE 24 35 13 19 1018.7 1015.2 0.0
20/09:00am 17.3 12.7 12.2 72 2.9 SE 28 35 15 19 1018.4 1015.0 0.0
20/08:30am 16.5 11.4 11.9 74 2.6 SE 30 35 16 19 1018.1 1014.6 0.0
20/08:00am 15.8 11.0 11.8 77 2.2 SE 28 32 15 17 1018.0 1014.5 0.0
20/07:30am 14.6 9.8 11.6 82 1.7 SE 28 33 15 18 1017.7 1014.2 0.0
20/07:00am 14.2 9.4 11.7 85 1.4 SE 28 32 15 17 1017.5 1014.0 0.0
20/06:30am 13.6 8.8 11.5 87 1.2 SSE 28 33 15 18 1017.1 1013.7 0.0
20/06:00am 13.2 8.3 11.4 89 1.0 SSE 28 32 15 17 1016.9 1013.5 0.0
20/05:30am 13.0 8.4 11.2 89 1.0 SSE 26 32 14 17 1016.8 1013.3 0.0
20/05:00am 13.4 8.6 11.5 88 1.0 SSE 28 35 15 19 1016.6 1013.1 0.0
20/04:30am 13.3 8.4 11.4 88 1.0 SSE 28 33 15 18 1016.5 1013.0 0.0
20/04:00am 13.4 8.2 11.5 88 1.0 SSE 30 33 16 18 1016.7 1013.2 0.0
20/03:30am 13.4 8.6 11.5 88 1.0 SE 28 35 15 19 1016.7 1013.2 0.0
20/03:00am 13.2 7.9 11.4 89 1.0 SSE 30 33 16 18 1016.7 1013.2 0.0
20/02:30am 13.4 7.6 11.5 88 1.0 SSE 33 39 18 21 1016.7 1013.2 0.0
20/02:00am 13.3 6.3 11.4 88 1.0 SSE 39 43 21 23 1016.7 1013.2 0.0
20/01:30am 13.5 6.2 11.6 88 1.1 SSE 41 50 22 27 1016.6 1013.1 0.0
20/01:00am 13.2 6.2 11.4 89 1.0 SSE 39 44 21 24 1016.8 1013.3 0.0
20/12:30am 13.1 6.1 11.3 89 1.0 SSE 39 46 21 25 1017.0 1013.6 0.0
20/12:00am 13.2 6.2 11.3 88 1.0 SSE 39 46 21 25 1017.1 1013.7 0.0
 
Date/Time
EDT
Temp
°C
App
Temp
°C
Dew
Point
Rel
Hum
%
Delta-T
°C
Wind Press
QNH
hPa
Press
MSL
hPa
Rain
since 9 am
mm
Dir
 
Spd
km/h
Gust
km/h
Spd
kts
Gust
kts
19/11:30pm 13.5 6.5 11.2 86 1.3 S 39 50 21 27 1017.4 1013.9 0.0
19/11:00pm 13.8 7.9 11.3 85 1.4 S 33 44 18 24 1017.3 1013.8 0.0
19/10:30pm 14.3 8.1 11.5 83 1.6 S 35 46 19 25 1017.3 1013.8 0.0
19/10:18pm 14.7 7.8 11.5 81 1.8 S 39 59 21 32 1016.8 1013.3 0.0
19/10:00pm 15.2 9.1 11.6 79 2.0 S 35 48 19 26 1016.6 1013.1 0.0
19/09:30pm 16.3 11.9 11.7 74 2.6 SSE 26 32 14 17 1016.2 1012.7 0.0
19/09:00pm 17.5 13.4 11.5 68 3.4 S 24 30 13 16 1016.0 1012.5 0.0
19/08:30pm 19.0 14.7 10.6 58 4.7 S 24 33 13 18 1015.4 1011.9 0.0
19/08:00pm 22.1 17.7 -2.6 19 11.0 WSW 11 15 6 8 1015.0 1011.5 0.0
19/07:30pm 23.7 18.9 -2.8 17 11.9 W 13 19 7 10 1014.7 1011.2 0.0
19/07:00pm 24.7 19.9 -2.8 16 12.4 W 13 20 7 11 1014.1 1010.6 0.0
19/06:30pm 25.0 19.2 -1.7 17 12.4 WNW 19 28 10 15 1013.6 1010.1 0.0
19/06:00pm 25.4 19.0 -1.4 17 12.5 W 22 32 12 17 1013.2 1009.6 0.0
19/05:30pm 25.6 19.3 -1.2 17 12.6 WNW 22 32 12 17 1013.0 1009.4 0.0
19/05:00pm 25.9 20.3 3.2 23 11.6 WNW 22 32 12 17 1012.7 1009.2 0.0
19/04:30pm 26.0 20.1 2.0 21 12.0 WSW 22 35 12 19 1012.7 1009.2 0.0
19/04:00pm 26.0 20.5 2.0 21 12.0 WNW 20 28 11 15 1012.9 1009.3 0.0
19/03:30pm 26.6 21.8 5.5 26 11.2 WNW 20 33 11 18 1013.0 1009.4 0.0
19/03:00pm 25.9 18.7 -1.8 16 12.9 W 26 35 14 19 1013.0 1009.4 0.0
19/02:30pm 25.6 20.7 2.3 22 11.7 NW 17 28 9 15 1013.1 1009.5 0.0
19/02:00pm 24.8 18.5 3.5 25 10.8 NW 26 35 14 19 1013.6 1010.1 0.0
19/01:30pm 25.3 21.3 5.0 27 10.6 WSW 15 30 8 16 1013.7 1010.2 0.0
19/01:00pm 23.9 18.5 1.5 23 10.9 WNW 19 33 10 18 1013.9 1010.4 0.0
19/12:30pm 23.7 16.4 2.5 25 10.5 WNW 30 39 16 21 1014.1 1010.6 0.0
19/12:00pm 24.0 18.4 5.4 30 9.7 NW 24 41 13 22 1014.3 1010.7 0.0
19/11:30am 23.6 19.5 6.4 33 9.1 NW 17 24 9 13 1014.1 1010.6 0.0
19/11:00am 22.6 19.8 6.8 36 8.4 NW 11 17 6 9 1014.4 1010.8 0.0
19/10:30am 21.3 18.9 8.6 44 6.9 NNW 11 20 6 11 1014.7 1011.2 0.0
19/10:00am 21.1 18.3 8.4 44 6.9 NW 13 19 7 10 1014.7 1011.2 0.0
19/09:30am 20.5 17.8 10.3 52 5.7 NW 15 20 8 11 1014.7 1011.2 0.0
19/09:00am 19.2 15.4 9.1 52 5.5 NW 19 24 10 13 1014.6 1011.1 0.0
19/08:30am 18.4 13.9 8.4 52 5.4 NW 22 28 12 15 1014.4 1010.8 0.0
19/08:00am 17.9 13.6 7.9 52 5.3 NNW 20 28 11 15 1013.9 1010.4 0.0
19/07:30am 17.5 13.1 7.3 51 5.3 NNW 20 26 11 14 1013.8 1010.3 0.0
19/07:00am 17.0 11.1 5.9 48 5.6 NNW 26 30 14 16 1013.5 1010.0 0.0
19/06:30am 16.9 10.4 2.9 39 6.7 NNW 26 32 14 17 1013.2 1009.6 0.0
19/06:00am 17.1 10.8 1.5 35 7.2 NW 24 28 13 15 1012.7 1009.2 0.0
19/05:30am 17.7 11.0 1.2 33 7.6 NNW 26 30 14 16 1012.2 1008.7 0.0
19/05:00am 18.1 12.1 1.2 32 7.8 NW 22 28 12 15 1012.0 1008.5 0.0
19/04:30am 17.9 11.6 1.4 33 7.7 NW 24 28 13 15 1011.8 1008.2 0.0
19/04:00am 18.3 12.7 1.3 32 7.9 NW 20 24 11 13 1011.6 1008.0 0.0
19/03:30am 18.4 12.9 1.9 33 7.8 NW 20 26 11 14 1011.5 1007.9 0.0
19/03:00am 18.2 12.9 2.1 34 7.6 NW 19 22 10 12 1011.7 1008.1 0.0
19/02:30am 18.6 13.4 2.4 34 7.7 NNW 19 28 10 15 1011.7 1008.1 0.0
19/02:00am 19.4 13.6 2.3 32 8.2 NNW 22 28 12 15 1011.7 1008.1 0.0
19/01:30am 19.5 13.8 2.8 33 8.1 NNW 22 28 12 15 1011.9 1008.3 0.0
19/01:00am 19.7 13.6 3.0 33 8.1 NNW 24 28 13 15 1012.1 1008.6 0.0
19/12:30am 19.1 13.2 3.7 36 7.6 NNW 24 28 13 15 1012.4 1008.9 0.0
19/12:00am 19.4 13.1 3.6 35 7.8 NNW 26 30 14 16 1012.4 1008.9 0.0
 
Date/Time
EDT
Temp
°C
App
Temp
°C
Dew
Point
Rel
Hum
%
Delta-T
°C
Wind Press
QNH
hPa
Press
MSL
hPa
Rain
since 9 am
mm
Dir
 
Spd
km/h
Gust
km/h
Spd
kts
Gust
kts
18/11:30pm 19.2 13.7 3.8 36 7.6 NNW 22 26 12 14 1012.3 1008.8 0.0
18/11:00pm 18.9 13.5 4.3 38 7.3 NNW 22 28 12 15 1012.2 1008.7 0.0
18/10:30pm 19.1 13.2 3.7 36 7.6 NW 24 30 13 16 1012.1 1008.6 0.0
18/10:00pm 19.9 13.5 3.2 33 8.2 NNW 26 32 14 17 1011.7 1008.1 0.0
18/09:30pm 20.4 14.4 3.2 32 8.4 NNW 24 30 13 16 1011.2 1007.7 0.0
18/09:00pm 22.0 15.4 2.2 27 9.7 N 26 30 14 16 1011.1 1007.6 0.0
18/08:30pm 21.9 16.3 1.5 26 9.8 NNW 20 28 11 15 1010.7 1007.1 0.0
18/08:00pm 22.4 17.8 3.5 29 9.5 NW 17 22 9 12 1010.4 1006.8 0.0
18/07:30pm 23.1 15.7 2.0 25 10.3 NW 30 37 16 20 1009.6 1006.1 0.0
18/07:00pm 23.9 16.8 1.5 23 10.9 NW 28 39 15 21 1009.0 1005.4 0.0
18/06:30pm 24.5 16.9 2.6 24 10.9 NW 32 43 17 23 1008.8 1005.2 0.0
18/06:00pm 24.9 17.4 3.5 25 10.9 NW 32 41 17 22 1008.8 1005.2 0.0

Other Formats:

Comma delimited format used in spreadsheet applications
http://www.bom.gov.au/fwo/IDN60801/IDN60801.95747.axf

JavaScript Object Notation format (JSON) in row-major order
http://www.bom.gov.au/fwo/IDN60801/IDN60801.95747.json